createdAt,value
2024-05-09T00:00:57.254Z,53.65
2024-05-09T00:02:59.983Z,54.58
2024-05-09T00:05:01.720Z,52.97
2024-05-09T00:07:03.524Z,48.58
2024-05-09T00:09:05.084Z,49.65
2024-05-09T00:11:06.871Z,45.40
2024-05-09T00:13:10.199Z,50.30
2024-05-09T00:15:12.396Z,52.83
2024-05-09T00:17:14.205Z,51.63
2024-05-09T00:19:15.940Z,55.00
2024-05-09T00:21:17.734Z,52.60
2024-05-09T00:23:19.395Z,59.00
2024-05-09T00:25:21.030Z,62.38
2024-05-09T00:27:22.759Z,62.17
2024-05-09T00:29:24.498Z,59.35
2024-05-09T00:31:26.725Z,55.13
2024-05-09T00:33:28.722Z,58.42
2024-05-09T00:35:30.699Z,57.03
2024-05-09T00:37:32.475Z,56.28
2024-05-09T00:39:34.106Z,59.03
2024-05-09T00:41:35.798Z,58.47
2024-05-09T00:43:37.430Z,60.03
2024-05-09T00:45:39.060Z,54.92
2024-05-09T00:47:42.945Z,54.75
2024-05-09T00:49:44.819Z,59.90
2024-05-09T00:51:46.677Z,60.45
2024-05-09T00:53:49.177Z,60.95
2024-05-09T00:55:52.676Z,64.63
2024-05-09T00:57:54.726Z,61.72
2024-05-09T00:59:56.778Z,64.95
2024-05-09T01:01:59.644Z,65.45
2024-05-09T01:04:01.748Z,66.65
2024-05-09T01:06:03.517Z,64.35
2024-05-09T01:08:05.947Z,62.45
2024-05-09T01:10:13.959Z,57.75
2024-05-09T01:12:19.206Z,57.17
2024-05-09T01:14:25.368Z,61.05
2024-05-09T01:16:27.076Z,57.42
2024-05-09T01:18:28.875Z,56.28
2024-05-09T01:20:39.801Z,60.70
2024-05-09T01:22:44.734Z,55.42
2024-05-09T01:24:46.357Z,57.67
2024-05-09T01:26:48.307Z,53.72
2024-05-09T01:28:49.899Z,58.88
2024-05-09T01:30:51.499Z,58.13
2024-05-09T01:32:53.414Z,57.90
2024-05-09T01:34:59.663Z,52.25
2024-05-09T01:37:01.347Z,53.70
2024-05-09T01:39:02.931Z,50.05
2024-05-09T01:41:04.807Z,52.28
2024-05-09T01:43:07.630Z,53.53
2024-05-09T01:45:09.805Z,47.35
2024-05-09T01:47:11.507Z,46.83
2024-05-09T01:49:13.310Z,47.67
2024-05-09T01:51:15.021Z,46.00
2024-05-09T01:53:16.712Z,49.00
2024-05-09T01:55:18.317Z,44.90
2024-05-09T01:57:19.994Z,43.40
2024-05-09T01:59:21.713Z,43.85
2024-05-09T02:01:24.021Z,41.33
2024-05-09T02:03:27.948Z,40.45
2024-05-09T02:05:30.094Z,40.22
2024-05-09T02:07:31.711Z,41.42
2024-05-09T02:09:37.680Z,37.25
2024-05-09T02:11:47.727Z,38.38
2024-05-09T02:13:49.415Z,36.92
2024-05-09T02:15:52.563Z,32.85
2024-05-09T02:17:54.504Z,37.13
2024-05-09T02:19:56.255Z,38.80
2024-05-09T02:21:57.823Z,32.08
2024-05-09T02:24:00.113Z,34.80
2024-05-09T02:26:01.737Z,36.00
2024-05-09T02:28:03.413Z,30.88
2024-05-09T02:30:12.227Z,31.55
2024-05-09T02:32:20.160Z,27.40
2024-05-09T02:34:21.938Z,29.38
2024-05-09T02:36:23.568Z,29.15
2024-05-09T02:38:25.193Z,29.52
2024-05-09T02:40:35.563Z,29.88
2024-05-09T02:42:39.703Z,23.80
2024-05-09T02:44:41.265Z,27.58
2024-05-09T02:46:42.827Z,25.40
2024-05-09T02:48:44.459Z,26.27
2024-05-09T02:50:46.203Z,25.80
2024-05-09T02:52:47.896Z,22.73
2024-05-09T02:54:49.500Z,22.13
2024-05-09T02:56:51.246Z,21.85
2024-05-09T02:58:52.964Z,22.73
2024-05-09T03:00:54.726Z,23.83
2024-05-09T03:02:56.538Z,21.13
2024-05-09T03:04:58.915Z,22.27
2024-05-09T03:07:00.539Z,20.77
2024-05-09T03:09:04.796Z,21.10
2024-05-09T03:11:06.639Z,21.17
2024-05-09T03:13:14.119Z,17.17
2024-05-09T03:15:18.375Z,17.35
2024-05-09T03:17:20.143Z,19.73
2024-05-09T03:19:22.078Z,17.42
2024-05-09T03:21:23.733Z,16.25
2024-05-09T03:23:25.361Z,16.95
2024-05-09T03:25:26.988Z,14.73
2024-05-09T03:27:28.641Z,16.33
2024-05-09T03:29:30.484Z,16.67
2024-05-09T03:31:32.173Z,15.85
2024-05-09T03:33:34.088Z,16.73
2024-05-09T03:35:35.875Z,14.90
2024-05-09T03:37:37.491Z,17.00
2024-05-09T03:39:39.193Z,17.05
2024-05-09T03:41:40.850Z,14.70
2024-05-09T03:43:43.926Z,14.00
2024-05-09T03:45:48.106Z,13.30
2024-05-09T03:47:49.859Z,12.00
2024-05-09T03:49:51.556Z,11.63
2024-05-09T03:51:53.138Z,11.98
2024-05-09T03:53:55.108Z,11.77
2024-05-09T03:55:57.315Z,13.75
2024-05-09T03:57:59.265Z,12.50
2024-05-09T04:00:00.930Z,11.02
2024-05-09T04:02:06.522Z,11.73
2024-05-09T04:04:09.160Z,11.75
2024-05-09T04:06:12.045Z,11.20
2024-05-09T04:08:15.369Z,10.43
2024-05-09T04:10:24.242Z,11.82
2024-05-09T04:12:32.650Z,10.07
2024-05-09T04:14:34.388Z,9.32
2024-05-09T04:16:36.058Z,8.95
2024-05-09T04:18:38.088Z,8.55
2024-05-09T04:20:41.142Z,12.05
2024-05-09T04:22:43.218Z,9.68
2024-05-09T04:24:45.272Z,9.57
2024-05-09T04:26:46.853Z,9.45
2024-05-09T04:28:48.483Z,9.27
2024-05-09T04:30:50.641Z,7.47
2024-05-09T04:32:52.440Z,8.23
2024-05-09T04:34:54.065Z,8.82
2024-05-09T04:36:55.658Z,7.72
2024-05-09T04:38:57.241Z,7.38
2024-05-09T04:40:59.845Z,7.18
2024-05-09T04:43:01.595Z,7.30
2024-05-09T04:45:03.359Z,6.00
2024-05-09T04:47:05.081Z,6.20
2024-05-09T04:49:06.791Z,6.80
2024-05-09T04:51:08.500Z,5.85
2024-05-09T04:53:14.855Z,8.90
2024-05-09T04:55:16.885Z,5.60
2024-05-09T04:57:18.437Z,6.40
2024-05-09T04:59:20.104Z,6.15
2024-05-09T05:01:21.798Z,5.40
2024-05-09T05:03:23.543Z,5.80
2024-05-09T05:05:25.234Z,6.63
2024-05-09T05:07:26.820Z,5.78
2024-05-09T05:09:28.501Z,4.63
2024-05-09T05:11:30.172Z,5.53
2024-05-09T05:13:32.526Z,4.93
2024-05-09T05:15:34.107Z,5.20
2024-05-09T05:17:36.438Z,5.78
2024-05-09T05:19:38.470Z,5.47
2024-05-09T05:21:40.164Z,5.47
2024-05-09T05:23:41.910Z,5.47
2024-05-09T05:25:44.082Z,5.28
2024-05-09T05:27:45.714Z,4.95
2024-05-09T05:29:50.128Z,5.32
2024-05-09T05:31:51.791Z,4.95
2024-05-09T05:33:53.599Z,4.65
2024-05-09T05:35:55.954Z,4.95
2024-05-09T05:37:57.571Z,5.07
2024-05-09T05:39:59.290Z,5.22
2024-05-09T05:42:02.426Z,4.65
2024-05-09T05:44:04.117Z,4.25
2024-05-09T05:46:05.735Z,4.18
2024-05-09T05:48:08.051Z,3.97
2024-05-09T05:50:20.409Z,4.70
2024-05-09T05:52:28.470Z,3.97
2024-05-09T05:54:30.039Z,5.15
2024-05-09T05:56:31.705Z,4.47
2024-05-09T05:58:33.343Z,4.50
2024-05-09T06:00:38.551Z,4.40
2024-05-09T06:02:42.028Z,3.88
2024-05-09T06:04:43.815Z,4.10
2024-05-09T06:06:45.500Z,4.00
2024-05-09T06:08:47.143Z,4.68
2024-05-09T06:10:48.889Z,4.20
2024-05-09T06:12:50.535Z,4.97
2024-05-09T06:14:52.210Z,6.18
2024-05-09T06:16:57.703Z,5.22
2024-05-09T06:18:59.905Z,5.05
2024-05-09T06:21:01.676Z,6.97
2024-05-09T06:23:03.594Z,5.80
2024-05-09T06:25:05.633Z,6.40
2024-05-09T06:27:07.334Z,6.07
2024-05-09T06:29:12.439Z,5.97
2024-05-09T06:31:14.076Z,6.15
2024-05-09T06:33:16.726Z,5.43
2024-05-09T06:35:20.422Z,7.20
2024-05-09T06:37:22.026Z,7.40
2024-05-09T06:39:24.146Z,4.97
2024-05-09T06:41:25.768Z,7.00
2024-05-09T06:43:27.429Z,7.43
2024-05-09T06:45:28.998Z,5.30
2024-05-09T06:47:30.837Z,6.35
2024-05-09T06:49:32.916Z,5.10
2024-05-09T06:51:38.394Z,5.15
2024-05-09T06:53:40.724Z,5.68
2024-05-09T06:55:43.105Z,6.85
2024-05-09T06:57:44.697Z,5.82
2024-05-09T06:59:46.300Z,5.13
2024-05-09T07:01:48.173Z,6.20
2024-05-09T07:03:50.163Z,5.22
2024-05-09T07:05:51.892Z,5.20
2024-05-09T07:07:53.600Z,5.05
2024-05-09T07:09:55.293Z,5.40
2024-05-09T07:11:57.046Z,4.78
2024-05-09T07:13:58.714Z,4.80
2024-05-09T07:16:00.373Z,5.05
2024-05-09T07:18:17.768Z,5.18
2024-05-09T07:20:31.632Z,4.10
2024-05-09T07:22:36.316Z,3.50
2024-05-09T07:24:44.890Z,4.53
2024-05-09T07:27:06.966Z,4.32
2024-05-09T07:29:28.984Z,4.68
2024-05-09T07:31:37.413Z,4.85
2024-05-09T07:33:39.294Z,4.18
2024-05-09T07:35:40.936Z,4.22
2024-05-09T07:37:42.546Z,5.28
2024-05-09T07:39:44.264Z,3.95
2024-05-09T07:41:46.038Z,3.90
2024-05-09T07:43:48.816Z,5.00
2024-05-09T07:45:54.102Z,3.55
2024-05-09T07:49:44.327Z,4.82
2024-05-09T07:53:30.555Z,4.28
2024-05-09T07:54:45.514Z,4.40
2024-05-09T07:56:47.314Z,4.18
2024-05-09T07:59:01.882Z,4.07
2024-05-09T08:01:23.951Z,4.30
2024-05-09T08:03:32.328Z,3.53
2024-05-09T08:05:38.956Z,3.45
2024-05-09T08:07:40.696Z,3.53
2024-05-09T08:09:42.304Z,3.58
2024-05-09T08:11:44.887Z,3.45
2024-05-09T08:13:46.782Z,3.63
2024-05-09T08:15:48.394Z,3.40
2024-05-09T08:17:50.173Z,5.05
2024-05-09T08:19:51.945Z,4.05
2024-05-09T08:21:53.651Z,4.43
2024-05-09T08:23:55.717Z,4.45
2024-05-09T08:26:00.806Z,4.45
2024-05-09T08:28:04.772Z,5.18
2024-05-09T08:30:10.184Z,4.35
2024-05-09T08:32:14.336Z,4.85
2024-05-09T08:34:18.527Z,6.93
2024-05-09T08:36:20.197Z,6.68
2024-05-09T08:38:21.845Z,3.97
2024-05-09T08:40:30.761Z,4.18
2024-05-09T08:42:38.212Z,4.57
2024-05-09T08:44:39.958Z,3.53
2024-05-09T08:46:42.375Z,4.15
2024-05-09T08:48:46.579Z,4.05
2024-05-09T08:50:52.077Z,4.72
2024-05-09T08:52:53.743Z,4.28
2024-05-09T08:54:55.377Z,3.67
2024-05-09T08:56:57.450Z,3.85
2024-05-09T08:59:01.695Z,4.53
2024-05-09T09:01:07.407Z,3.72
2024-05-09T09:03:11.390Z,5.10
2024-05-09T09:05:17.138Z,4.25
2024-05-09T09:07:22.407Z,4.97
2024-05-09T09:09:26.722Z,4.00
2024-05-09T09:11:28.467Z,3.67
2024-05-09T09:13:30.123Z,3.78
2024-05-09T09:15:31.864Z,3.83
2024-05-09T09:17:33.745Z,5.28
2024-05-09T09:19:40.232Z,3.85
2024-05-09T09:21:42.589Z,2.95
2024-05-09T09:23:44.250Z,4.32
2024-05-09T09:25:48.965Z,4.78
2024-05-09T09:27:50.865Z,4.97
2024-05-09T09:29:52.547Z,3.45
2024-05-09T09:32:08.562Z,3.05
2024-05-09T09:34:10.673Z,3.10
2024-05-09T09:36:14.351Z,3.58
2024-05-09T09:38:21.575Z,4.10
2024-05-09T09:40:32.094Z,2.88
2024-05-09T09:42:37.816Z,3.80
2024-05-09T09:44:42.212Z,3.78
2024-05-09T09:46:47.397Z,4.07
2024-05-09T09:48:49.289Z,2.72
2024-05-09T09:50:52.281Z,5.13
2024-05-09T09:52:55.057Z,3.92
2024-05-09T09:54:58.556Z,2.97
2024-05-09T09:57:01.020Z,4.15
2024-05-09T09:59:04.306Z,2.85
2024-05-09T10:01:05.961Z,3.28
2024-05-09T10:03:07.583Z,2.53
2024-05-09T10:05:09.935Z,2.38
2024-05-09T10:07:13.372Z,2.30
2024-05-09T10:09:16.530Z,3.10
2024-05-09T10:11:22.183Z,2.90
2024-05-09T10:13:33.030Z,4.07
2024-05-09T10:15:51.424Z,3.53
2024-05-09T10:17:53.357Z,2.85
2024-05-09T10:20:14.412Z,3.78
2024-05-09T10:22:28.852Z,3.40
2024-05-09T10:24:53.469Z,3.58
2024-05-09T10:26:56.011Z,4.85
2024-05-09T10:28:58.753Z,3.72
2024-05-09T10:31:03.051Z,4.65
2024-05-09T10:33:10.937Z,5.38
2024-05-09T10:35:15.082Z,5.43
2024-05-09T10:37:17.545Z,5.25
2024-05-09T10:39:25.739Z,4.85
2024-05-09T10:41:27.646Z,3.60
2024-05-09T10:43:31.281Z,3.67
2024-05-09T10:45:35.473Z,3.97
2024-05-09T10:47:37.445Z,4.40
2024-05-09T10:49:39.283Z,3.45
2024-05-09T10:51:44.496Z,3.58
2024-05-09T10:53:48.849Z,7.28
2024-05-09T10:55:57.499Z,3.97
2024-05-09T10:57:59.133Z,3.53
2024-05-09T11:00:00.756Z,3.15
2024-05-09T11:02:10.178Z,3.15
2024-05-09T11:04:12.235Z,4.20
2024-05-09T11:06:15.384Z,4.35
2024-05-09T11:08:17.656Z,3.45
2024-05-09T11:10:27.331Z,3.67
2024-05-09T11:12:33.505Z,3.10
2024-05-09T11:14:35.368Z,2.85
2024-05-09T11:16:36.954Z,2.80
2024-05-09T11:18:39.407Z,3.05
2024-05-09T11:20:41.419Z,3.72
2024-05-09T11:22:45.207Z,2.77
2024-05-09T11:24:47.028Z,2.10
2024-05-09T11:26:48.761Z,3.58
2024-05-09T11:28:51.803Z,3.45
2024-05-09T11:31:05.447Z,3.13
2024-05-09T11:33:11.232Z,3.72
2024-05-09T11:35:12.982Z,1.95
2024-05-09T11:37:14.763Z,2.83
2024-05-09T11:39:16.613Z,1.80
2024-05-09T11:41:18.723Z,2.73
2024-05-09T11:43:21.048Z,2.53
2024-05-09T11:45:22.940Z,2.28
2024-05-09T11:47:24.774Z,2.10
2024-05-09T11:49:27.083Z,3.08
2024-05-09T11:51:28.896Z,2.80
2024-05-09T11:53:30.521Z,2.60
2024-05-09T11:55:36.262Z,3.72
2024-05-09T11:57:38.973Z,2.95
2024-05-09T11:59:41.020Z,3.05
2024-05-09T12:01:42.776Z,5.07
2024-05-09T12:03:44.647Z,3.20
2024-05-09T12:05:46.522Z,2.95
2024-05-09T12:07:48.234Z,3.67
2024-05-09T12:09:50.051Z,3.22
2024-05-09T12:11:52.877Z,2.45
2024-05-09T12:13:54.555Z,2.90
2024-05-09T12:15:56.280Z,3.55
2024-05-09T12:18:00.059Z,3.40
2024-05-09T12:20:07.060Z,2.70
2024-05-09T12:22:10.796Z,3.13
2024-05-09T12:24:14.483Z,3.35
2024-05-09T12:26:17.714Z,2.55
2024-05-09T12:28:20.162Z,3.35
2024-05-09T12:30:32.553Z,3.53
2024-05-09T12:32:39.165Z,3.50
2024-05-09T12:34:40.859Z,3.53
2024-05-09T12:36:43.109Z,3.03
2024-05-09T12:38:45.907Z,5.05
2024-05-09T12:40:47.557Z,3.22
2024-05-09T12:42:49.905Z,3.70
2024-05-09T12:44:51.509Z,3.50
2024-05-09T12:46:53.083Z,3.28
2024-05-09T12:48:55.065Z,4.85
2024-05-09T12:50:57.646Z,3.33
2024-05-09T12:52:59.358Z,3.88
2024-05-09T12:55:01.038Z,4.13
2024-05-09T12:57:02.712Z,4.10
2024-05-09T12:59:04.378Z,4.55
2024-05-09T13:01:06.113Z,2.70
2024-05-09T13:03:07.886Z,3.95
2024-05-09T13:05:10.502Z,3.10
2024-05-09T13:07:12.230Z,2.92
2024-05-09T13:09:13.861Z,3.80
2024-05-09T13:11:15.486Z,4.47
2024-05-09T13:13:17.293Z,3.55
2024-05-09T13:15:19.040Z,2.60
2024-05-09T13:17:20.918Z,3.15
2024-05-09T13:19:22.737Z,3.05
2024-05-09T13:21:24.413Z,3.65
2024-05-09T13:23:26.415Z,2.67
2024-05-09T13:25:28.041Z,2.78
2024-05-09T13:27:29.702Z,2.83
2024-05-09T13:29:31.344Z,2.83
2024-05-09T13:31:32.976Z,2.67
2024-05-09T13:33:34.694Z,2.40
2024-05-09T13:35:36.506Z,3.00
2024-05-09T13:37:38.334Z,3.85
2024-05-09T13:39:40.003Z,2.88
2024-05-09T13:41:41.594Z,3.03
2024-05-09T13:43:43.181Z,3.17
2024-05-09T13:45:44.944Z,2.80
2024-05-09T13:47:46.738Z,2.88
2024-05-09T13:49:48.480Z,2.30
2024-05-09T13:51:50.140Z,3.17
2024-05-09T13:53:51.752Z,4.00
2024-05-09T13:55:53.426Z,2.50
2024-05-09T13:57:55.420Z,2.30
2024-05-09T13:59:57.380Z,2.65
2024-05-09T14:01:59.066Z,2.10
2024-05-09T14:04:00.893Z,2.92
2024-05-09T14:06:02.622Z,3.05
2024-05-09T14:08:04.608Z,2.50
2024-05-09T14:10:11.399Z,2.80
2024-05-09T14:12:15.324Z,2.00
2024-05-09T14:14:16.968Z,1.80
2024-05-09T14:16:18.805Z,2.75
2024-05-09T14:18:20.808Z,3.22
2024-05-09T14:20:30.712Z,2.78
2024-05-09T14:22:35.488Z,2.92
2024-05-09T14:24:37.128Z,3.03
2024-05-09T14:26:38.726Z,3.47
2024-05-09T14:28:40.336Z,3.08
2024-05-09T14:30:42.480Z,3.88
2024-05-09T14:32:44.622Z,3.85
2024-05-09T14:34:46.477Z,3.00
2024-05-09T14:36:48.296Z,4.15
2024-05-09T14:38:49.910Z,2.92
2024-05-09T14:40:51.635Z,3.83
2024-05-09T14:42:53.500Z,3.45
2024-05-09T14:44:55.098Z,3.88
2024-05-09T14:46:56.913Z,3.55
2024-05-09T14:49:00.104Z,3.78
2024-05-09T14:51:01.723Z,3.15
2024-05-09T14:53:03.489Z,2.85
2024-05-09T14:55:05.590Z,2.92
2024-05-09T14:57:07.325Z,2.78
2024-05-09T14:59:09.222Z,2.28
2024-05-09T15:01:10.894Z,1.88
2024-05-09T15:03:12.760Z,2.45
2024-05-09T15:05:14.519Z,3.53
2024-05-09T15:07:16.277Z,5.45
2024-05-09T15:09:17.958Z,3.33
2024-05-09T15:11:19.624Z,4.63
2024-05-09T15:13:21.699Z,4.55
2024-05-09T15:15:23.369Z,3.00
2024-05-09T15:17:25.038Z,3.65
2024-05-09T15:19:26.956Z,3.60
2024-05-09T15:21:28.725Z,3.05
2024-05-09T15:23:30.286Z,2.63
2024-05-09T15:25:33.632Z,3.20
2024-05-09T15:27:35.372Z,3.50
2024-05-09T15:29:37.035Z,3.72
2024-05-09T15:31:38.694Z,3.08
2024-05-09T15:33:41.747Z,4.28
2024-05-09T15:35:44.825Z,5.63
2024-05-09T15:37:48.183Z,2.70
2024-05-09T15:39:50.020Z,3.58
2024-05-09T15:41:56.490Z,2.25
2024-05-09T15:43:58.077Z,2.33
2024-05-09T15:45:59.851Z,4.43
2024-05-09T15:48:02.826Z,2.33
2024-05-09T15:50:07.887Z,2.20
2024-05-09T15:52:11.568Z,3.20
2024-05-09T15:54:13.296Z,3.33
2024-05-09T15:56:14.888Z,3.72
2024-05-09T15:58:16.717Z,2.42
2024-05-09T16:00:25.252Z,4.53
2024-05-09T16:02:36.105Z,2.75
2024-05-09T16:04:37.952Z,2.90
2024-05-09T16:06:39.798Z,4.18
2024-05-09T16:08:41.594Z,4.90
2024-05-09T16:10:45.999Z,3.83
2024-05-09T16:12:50.906Z,5.38
2024-05-09T16:14:52.552Z,5.90
2024-05-09T16:16:54.234Z,5.00
2024-05-09T16:18:56.002Z,4.32
2024-05-09T16:21:00.290Z,3.75
2024-05-09T16:23:02.113Z,3.70
2024-05-09T16:25:04.135Z,3.17
2024-05-09T16:27:06.045Z,5.00
2024-05-09T16:29:08.497Z,3.88
2024-05-09T16:31:10.232Z,4.07
2024-05-09T16:33:23.872Z,4.38
2024-05-09T16:35:28.757Z,4.17
2024-05-09T16:37:33.393Z,5.70
2024-05-09T16:39:35.021Z,4.22
2024-05-09T16:41:37.016Z,4.85
2024-05-09T16:43:38.587Z,4.40
2024-05-09T16:45:41.903Z,4.10
2024-05-09T16:47:43.736Z,3.90
2024-05-09T16:49:45.470Z,3.22
2024-05-09T16:51:47.087Z,3.05
2024-05-09T16:53:48.771Z,2.80
2024-05-09T16:55:50.400Z,2.67
2024-05-09T16:57:52.088Z,2.50
2024-05-09T16:59:53.673Z,2.28
2024-05-09T17:01:55.341Z,2.92
2024-05-09T17:03:59.848Z,2.55
2024-05-09T17:06:03.644Z,2.97
2024-05-09T17:08:05.726Z,2.65
2024-05-09T17:10:10.440Z,2.05
2024-05-09T17:12:17.119Z,3.72
2024-05-09T17:14:18.816Z,1.75
2024-05-09T17:16:20.975Z,1.80
2024-05-09T17:18:22.748Z,2.90
2024-05-09T17:20:31.834Z,2.63
2024-05-09T17:22:36.619Z,2.85
2024-05-09T17:24:38.192Z,3.88
2024-05-09T17:26:39.954Z,2.00
2024-05-09T17:28:41.575Z,3.45
2024-05-09T17:30:43.343Z,4.10
2024-05-09T17:32:45.112Z,5.38
2024-05-09T17:34:46.798Z,5.13
2024-05-09T17:36:48.443Z,3.53
2024-05-09T17:38:50.327Z,2.65
2024-05-09T17:40:53.131Z,3.47
2024-05-09T17:42:54.908Z,4.72
2024-05-09T17:44:56.506Z,3.67
2024-05-09T17:46:58.154Z,2.33
2024-05-09T17:49:01.321Z,2.22
2024-05-09T17:51:03.318Z,3.80
2024-05-09T17:53:05.847Z,4.32
2024-05-09T17:55:07.607Z,3.00
2024-05-09T17:57:09.464Z,3.00
2024-05-09T17:59:11.578Z,3.42
2024-05-09T18:01:13.972Z,2.13
2024-05-09T18:03:15.728Z,2.80
2024-05-09T18:05:17.495Z,2.85
2024-05-09T18:07:19.723Z,2.13
2024-05-09T18:09:23.004Z,3.53
2024-05-09T18:11:25.633Z,2.78
2024-05-09T18:13:27.481Z,2.42
2024-05-09T18:15:29.056Z,1.83
2024-05-09T18:17:30.935Z,2.40
2024-05-09T18:19:35.300Z,2.72
2024-05-09T18:21:39.140Z,3.13
2024-05-09T18:23:40.718Z,2.25
2024-05-09T18:25:42.403Z,3.10
2024-05-09T18:27:44.047Z,3.78
2024-05-09T18:29:45.625Z,2.83
2024-05-09T18:31:47.298Z,4.75
2024-05-09T18:33:49.171Z,2.10
2024-05-09T18:35:50.965Z,2.20
2024-05-09T18:37:53.083Z,2.60
2024-05-09T18:39:54.817Z,2.95
2024-05-09T18:41:56.403Z,2.28
2024-05-09T18:43:58.359Z,1.88
2024-05-09T18:46:00.015Z,2.17
2024-05-09T18:48:01.795Z,2.25
2024-05-09T18:50:04.706Z,2.85
2024-05-09T18:52:07.571Z,3.15
2024-05-09T18:54:09.249Z,3.30
2024-05-09T18:56:10.831Z,2.10
2024-05-09T18:58:12.612Z,2.50
2024-05-09T19:00:26.645Z,3.50
2024-05-09T19:02:35.374Z,1.80
2024-05-09T19:04:37.192Z,2.10
2024-05-09T19:06:39.031Z,2.22
2024-05-09T19:08:40.639Z,4.30
2024-05-09T19:10:42.300Z,3.95
2024-05-09T19:12:44.009Z,3.70
2024-05-09T19:14:45.619Z,2.13
2024-05-09T19:16:47.315Z,2.53
2024-05-09T19:18:51.363Z,3.45
2024-05-09T19:20:53.234Z,2.45
2024-05-09T19:22:54.919Z,2.72
2024-05-09T19:24:56.656Z,3.35
2024-05-09T19:26:58.294Z,2.45
2024-05-09T19:28:59.866Z,2.92
2024-05-09T19:31:01.700Z,3.22
2024-05-09T19:33:03.551Z,2.55
2024-05-09T19:35:05.744Z,2.67
2024-05-09T19:37:07.499Z,3.80
2024-05-09T19:39:09.356Z,2.30
2024-05-09T19:41:11.033Z,1.80
2024-05-09T19:43:12.682Z,2.30
2024-05-09T19:45:14.290Z,1.85
2024-05-09T19:47:15.988Z,2.85
2024-05-09T19:49:17.728Z,2.65
2024-05-09T19:51:19.422Z,3.28
2024-05-09T19:53:21.040Z,2.90
2024-05-09T19:55:22.887Z,2.40
2024-05-09T19:57:24.625Z,2.08
2024-05-09T19:59:26.224Z,2.63
2024-05-09T20:01:27.836Z,2.40
2024-05-09T20:03:36.510Z,2.30
2024-05-09T20:05:38.850Z,2.25
2024-05-09T20:07:41.936Z,2.85
2024-05-09T20:09:43.539Z,2.20
2024-05-09T20:11:45.155Z,2.70
2024-05-09T20:13:46.820Z,4.13
2024-05-09T20:15:49.359Z,2.88
2024-05-09T20:17:51.577Z,5.00
2024-05-09T20:19:54.477Z,2.80
2024-05-09T20:21:56.203Z,2.88
2024-05-09T20:23:57.923Z,2.10
2024-05-09T20:25:59.566Z,2.33
2024-05-09T20:28:01.401Z,3.33
2024-05-09T20:30:06.514Z,2.40
2024-05-09T20:32:09.591Z,3.70
2024-05-09T20:34:11.291Z,3.60
2024-05-09T20:36:12.869Z,2.67
2024-05-09T20:38:14.678Z,4.05
2024-05-09T20:40:25.278Z,4.10
2024-05-09T20:42:32.872Z,2.70
2024-05-09T20:44:34.623Z,4.32
2024-05-09T20:46:36.165Z,3.13
2024-05-09T20:48:37.861Z,3.20
2024-05-09T20:50:41.982Z,2.50
2024-05-09T20:52:44.392Z,3.65
2024-05-09T20:54:46.100Z,3.00
2024-05-09T20:56:47.718Z,3.58
2024-05-09T20:58:49.419Z,3.13
2024-05-09T21:00:51.239Z,3.65
2024-05-09T21:02:53.111Z,2.13
2024-05-09T21:04:54.800Z,2.42
2024-05-09T21:06:56.534Z,2.40
2024-05-09T21:08:58.713Z,3.13
2024-05-09T21:11:00.361Z,3.40
2024-05-09T21:13:03.333Z,3.75
2024-05-09T21:15:05.956Z,3.15
2024-05-09T21:17:07.677Z,2.63
2024-05-09T21:19:09.423Z,2.20
2024-05-09T21:21:11.284Z,4.68
2024-05-09T21:23:12.926Z,4.18
2024-05-09T21:25:14.622Z,2.67
2024-05-09T21:27:16.248Z,3.25
2024-05-09T21:29:17.859Z,3.10
2024-05-09T21:31:19.577Z,3.35
2024-05-09T21:33:21.669Z,2.33
2024-05-09T21:35:23.412Z,3.10
2024-05-09T21:37:25.041Z,2.40
2024-05-09T21:39:26.695Z,2.35
2024-05-09T21:41:28.303Z,3.72
2024-05-09T21:43:31.478Z,3.85
2024-05-09T21:45:34.073Z,2.80
2024-05-09T21:47:36.123Z,2.20
2024-05-09T21:49:37.870Z,2.20
2024-05-09T21:51:39.554Z,4.20
2024-05-09T21:53:41.215Z,2.72
2024-05-09T21:55:43.101Z,3.03
2024-05-09T21:57:44.886Z,2.55
2024-05-09T21:59:47.444Z,1.85
2024-05-09T22:01:49.146Z,3.45
2024-05-09T22:03:51.045Z,2.33
2024-05-09T22:05:52.708Z,2.42
2024-05-09T22:07:54.310Z,2.42
2024-05-09T22:09:55.915Z,3.90
2024-05-09T22:11:58.047Z,4.00
2024-05-09T22:13:59.724Z,2.30
2024-05-09T22:16:03.782Z,2.50
2024-05-09T22:18:06.237Z,2.08
2024-05-09T22:20:17.863Z,2.45
2024-05-09T22:22:23.611Z,3.97
2024-05-09T22:24:28.020Z,2.35
2024-05-09T22:26:29.619Z,2.55
2024-05-09T22:28:31.723Z,3.20
2024-05-09T22:30:37.479Z,2.65
2024-05-09T22:32:41.330Z,2.45
2024-05-09T22:34:43.016Z,2.70
2024-05-09T22:36:44.652Z,2.60
2024-05-09T22:38:46.286Z,2.58
2024-05-09T22:40:49.803Z,3.22
2024-05-09T22:42:51.848Z,4.57
2024-05-09T22:44:53.472Z,2.50
2024-05-09T22:46:55.136Z,2.50
2024-05-09T22:48:56.940Z,3.95
2024-05-09T22:50:58.565Z,2.72
2024-05-09T22:53:00.216Z,2.58
2024-05-09T22:55:01.820Z,2.63
2024-05-09T22:57:03.749Z,2.63
2024-05-09T22:59:06.638Z,2.40
2024-05-09T23:01:14.741Z,2.70
2024-05-09T23:03:16.643Z,2.17
2024-05-09T23:05:18.444Z,2.40
2024-05-09T23:07:20.106Z,2.92
2024-05-09T23:09:21.808Z,3.90
2024-05-09T23:11:23.567Z,3.90
2024-05-09T23:13:25.572Z,3.30
2024-05-09T23:15:27.426Z,4.03
2024-05-09T23:17:29.076Z,3.03
2024-05-09T23:19:30.765Z,2.65
2024-05-09T23:21:32.411Z,3.45
2024-05-09T23:23:34.207Z,3.03
2024-05-09T23:25:36.742Z,3.10
2024-05-09T23:27:39.128Z,2.42
2024-05-09T23:29:40.728Z,4.13
2024-05-09T23:31:42.382Z,3.28
2024-05-09T23:33:47.197Z,2.65
2024-05-09T23:35:48.946Z,2.50
2024-05-09T23:37:50.545Z,2.70
2024-05-09T23:39:52.528Z,3.25
2024-05-09T23:41:54.081Z,2.70
2024-05-09T23:43:55.657Z,2.60
2024-05-09T23:45:57.310Z,2.88
2024-05-09T23:47:58.969Z,2.97
2024-05-09T23:50:00.773Z,3.75
2024-05-09T23:52:02.420Z,3.50
2024-05-09T23:54:04.118Z,3.50
2024-05-09T23:56:06.204Z,3.45
2024-05-09T23:58:08.333Z,4.55
